Houston's Hourly Summary for Friday, May 11, 2018
Hour Temp
(f)
RH
(%)
Solar Rad.
(MJ/m2)
Rainfall
(in)
Wind
(mph)
5/11/2018 12:00 AM 72 78 0 0 0
5/11/2018 1:00 AM 72 83 0 0 0
5/11/2018 2:00 AM 72 85 0 0 0
5/11/2018 3:00 AM 72 87 0 0 0
5/11/2018 4:00 AM 71 88 0 0 0
5/11/2018 5:00 AM 71 87 0 0 0
5/11/2018 6:00 AM 70 87 0 0 0
5/11/2018 7:00 AM 70 89 0.04 0 0
5/11/2018 8:00 AM 73 80 0.51 0 0
5/11/2018 9:00 AM 77 69 1.28 0 0.08
5/11/2018 10:00 AM 77 61 1.15 0.01 0.08
5/11/2018 11:00 AM 81 44 2.25 0 4.23
5/11/2018 12:00 PM 84 44 2.73 0 7.2
5/11/2018 1:00 PM 85 40 3.36 0 7.53
5/11/2018 2:00 PM 86 41 3.13 0 8.04
5/11/2018 3:00 PM 86 40 2.77 0 7.71
5/11/2018 4:00 PM 86 42 2.92 0 8.19
5/11/2018 5:00 PM 85 46 2.01 0 8.5
5/11/2018 6:00 PM 84 47 1.61 0 7.45
5/11/2018 7:00 PM 83 50 0.93 0 7.64
5/11/2018 8:00 PM 80 59 0.21 0 6.43
5/11/2018 9:00 PM 78 66 0 0 5.66
5/11/2018 10:00 PM 77 75 0 0 5.26
5/11/2018 11:00 PM 76 79 0 0 5.09
Data Summary 77 65 24.90 0.01 3.71